Serenade Of The Seas — C6FV8 — position and weather

sailwx.info

Track history (hours):
 
Tides and Currents Weather Stations Pressure Air Temp Water Temp Dewpoint Dewpoint Depression Visibility Wind Speed Wind Dir Waves Ship Positions

Serenade Of The Seas

Operator: Royal Caribbean Cruises Ltd

Last reported at 2019-Jul-22 04:24 UTC. Time now 2019-Jul-22 05:23 UTC.
Position N 59°23' E 021°54'.

Length 294 m; draft 8.5 m.

Type: Ship. MMSI: 311492000.

Date/timePositionNaut miles runAvg speedWind from/ knotsBaromVisibWave heightAir tempDewpointWater temp
2019-Jul-22 04:24N 59°23' E 021°54'511.8
2019-Jul-22 04:00N 59°24' E 021°45'611.8
2019-Jul-22 03:31N 59°24' E 021°33'611.7
2019-Jul-22 03:00N 59°23' E 021°22'611.3
2019-Jul-22 02:30N 59°24' E 021°10'3510.9
2019-Jul-21 23:18N 59°32' E 020°04'511.6
2019-Jul-21 22:54N 59°36' E 019°60'512.1
2019-Jul-21 22:30N 59°40' E 019°53'712.3
2019-Jul-21 21:55N 59°45' E 019°44'10 9.7
2019-Jul-21 20:51N 59°46' E 019°23'711.6
2019-Jul-21 20:17N 59°44' E 019°11'617.2
2019-Jul-21 19:55N 59°41' E 018°60'611.5
2019-Jul-21 19:23N 59°37' E 018°50'512.0
2019-Jul-21 18:57N 59°35' E 018°41'510.3
2019-Jul-21 18:30N 59°32' E 018°34'510.2
2019-Jul-21 18:00N 59°29' E 018°27'5 9.4
2019-Jul-21 17:30N 59°24' E 018°26'3 5.8
2019-Jul-21 17:00N 59°22' E 018°22'610.9
2019-Jul-21 16:30N 59°20' E 018°12'2 4.1
2019-Jul-21 15:56N 59°21' E 018°08'0 0.0
2019-Jul-21 15:26N 59°21' E 018°08'0 0.0
2019-Jul-21 14:59N 59°21' E 018°08'0 0.0
2019-Jul-21 14:29N 59°21' E 018°08'0 0.0
2019-Jul-21 13:59N 59°21' E 018°08'0 0.0
2019-Jul-21 13:29N 59°21' E 018°08'0 0.0
2019-Jul-21 12:59N 59°21' E 018°08'0 0.0
2019-Jul-21 12:29N 59°21' E 018°08'0 0.0
2019-Jul-21 11:59N 59°21' E 018°08'0 0.0
2019-Jul-21 11:29N 59°21' E 018°08'0 0.0
2019-Jul-21 10:59N 59°21' E 018°08'0 0.0
2019-Jul-21 10:29N 59°21' E 018°08'0 0.0
2019-Jul-21 09:59N 59°21' E 018°08'0 0.0
2019-Jul-21 09:29N 59°21' E 018°08'0 0.0
2019-Jul-21 08:59N 59°21' E 018°08'0 0.0
2019-Jul-21 08:29N 59°21' E 018°08'0 0.0
2019-Jul-21 07:59N 59°21' E 018°08'0 0.0
2019-Jul-21 07:29N 59°21' E 018°08'0 0.0
2019-Jul-21 06:59N 59°21' E 018°08'0 0.0
2019-Jul-21 06:29N 59°21' E 018°08'0 0.0
2019-Jul-21 05:59N 59°21' E 018°08'0 0.7
2019-Jul-21 05:30N 59°21' E 018°08'4 8.4
2019-Jul-21 05:00N 59°22' E 018°16'510.1
2019-Jul-21 04:31N 59°21' E 018°26'5 9.9
2019-Jul-21 04:00N 59°26' E 018°23'611.3
2019-Jul-21 03:30N 59°31' E 018°30'510.1
2019-Jul-21 03:00N 59°34' E 018°38'611.9
2019-Jul-21 02:30N 59°37' E 018°48'510.6
2019-Jul-21 02:00N 59°40' E 018°56'815.6
2019-Jul-21 01:31N 59°44' E 019°10'815.9
2019-Jul-21 01:00N 59°47' E 019°25'815.7
2019-Jul-21 00:30N 59°48' E 019°40'917.9
2019-Jul-21 00:00N 59°43' E 019°55'1019.3
2019-Jul-20 23:30N 59°36' E 020°08'918.8
2019-Jul-20 23:00N 59°27' E 020°11'918.4
2019-Jul-20 22:30N 59°19' E 020°02'1019.1
2019-Jul-20 22:00N 59°12' E 019°50'1019.2
2019-Jul-20 21:30N 59°05' E 019°38'1019.2
2019-Jul-20 21:00N 58°57' E 019°26'1019.4
2019-Jul-20 20:30N 58°50' E 019°14'1019.4
2019-Jul-20 20:00N 58°42' E 019°02'1019.3
2019-Jul-20 19:30N 58°35' E 018°50'1019.2
2019-Jul-20 19:00N 58°27' E 018°40'1019.1
2019-Jul-20 18:30N 58°19' E 018°30'918.9
2019-Jul-20 18:00N 58°11' E 018°21'1019.1
2019-Jul-20 17:30N 58°03' E 018°11'918.2
2019-Jul-20 17:00N 57°54' E 018°09'918.8
2019-Jul-20 16:30N 57°44' E 018°12'713.5
2019-Jul-20 16:00N 57°38' E 018°16'0 0.4
2019-Jul-20 15:21N 57°38' E 018°16'0 0.0
2019-Jul-20 14:39N 57°38' E 018°16'0 0.0
2019-Jul-20 14:15N 57°38' E 018°16'0 0.0
2019-Jul-20 13:51N 57°38' E 018°16'0 0.0
2019-Jul-20 13:06N 57°38' E 018°16'0 0.0
2019-Jul-20 12:57N 57°38' E 018°16'0 0.0
2019-Jul-20 12:27N 57°38' E 018°16'0 0.0
2019-Jul-20 12:00N 57°38' E 018°16'0 0.0
2019-Jul-20 11:30N 57°38' E 018°16'0 0.0
2019-Jul-20 11:00N 57°38' E 018°16'0 0.0
2019-Jul-20 10:27N 57°38' E 018°16'0 0.0
2019-Jul-20 09:54N 57°38' E 018°16'0 0.0
2019-Jul-20 09:30N 57°38' E 018°16'0 0.0
2019-Jul-20 09:00N 57°38' E 018°16'0 0.0
2019-Jul-20 08:27N 57°38' E 018°16'0 0.0
2019-Jul-20 07:48N 57°38' E 018°16'0 0.0
2019-Jul-20 07:18N 57°38' E 018°16'0 0.0
2019-Jul-20 06:51N 57°38' E 018°16'0 0.0
2019-Jul-20 06:27N 57°38' E 018°16'0 0.0
2019-Jul-20 05:57N 57°38' E 018°16'0 0.0
2019-Jul-20 05:30N 57°38' E 018°16'3 5.7
2019-Jul-20 05:00N 57°39' E 018°11'815.7
2019-Jul-20 04:30N 57°47' E 018°14'816.9
2019-Jul-20 04:00N 57°54' E 018°22'917.2
2019-Jul-20 03:30N 57°58' E 018°37'917.3
2019-Jul-20 03:00N 58°01' E 018°52'917.2
2019-Jul-20 02:30N 58°05' E 019°07'917.4
2019-Jul-20 02:00N 58°08' E 019°21'917.8
2019-Jul-20 01:30N 58°14' E 019°34'917.6
2019-Jul-20 01:00N 58°20' E 019°47'917.6
2019-Jul-20 00:30N 58°25' E 020°00'917.5
2019-Jul-20 00:00N 58°31' E 020°13'917.7
2019-Jul-19 23:30N 58°36' E 020°26'917.6
2019-Jul-19 23:00N 58°42' E 020°39'917.6
2019-Jul-19 22:30N 58°47' E 020°53'917.5
2019-Jul-19 22:00N 58°53' E 021°06'917.4
2019-Jul-19 21:30N 58°59' E 021°19'917.3
2019-Jul-19 21:00N 59°05' E 021°30'917.2
2019-Jul-19 20:30N 59°12' E 021°41'917.3
2019-Jul-19 20:00N 59°17' E 021°54'917.3
2019-Jul-19 19:30N 59°22' E 022°07'917.4
2019-Jul-19 19:00N 59°28' E 022°21'917.4
2019-Jul-19 18:30N 59°31' E 022°37'917.4
2019-Jul-19 18:00N 59°33' E 022°53'917.4
2019-Jul-19 17:30N 59°35' E 023°10'917.3
2019-Jul-19 17:00N 59°34' E 023°27'1817.3
2019-Jul-19 15:58N 59°31' E 024°01'817.2
2019-Jul-19 15:31N 59°30' E 024°17'816.6
2019-Jul-19 15:00N 59°30' E 024°33'611.9
2019-Jul-19 14:30N 59°31' E 024°45'4 7.5
2019-Jul-19 13:59N 59°27' E 024°46'0 0.0
2019-Jul-19 13:29N 59°27' E 024°46'0 0.0
2019-Jul-19 12:59N 59°27' E 024°46'0 0.0
2019-Jul-19 12:29N 59°27' E 024°46'0 0.0
2019-Jul-19 11:59N 59°27' E 024°46'0 0.0
2019-Jul-19 11:26N 59°27' E 024°46'0 0.0
2019-Jul-19 10:56N 59°27' E 024°46'0 0.0
2019-Jul-19 10:29N 59°27' E 024°46'0 0.0
2019-Jul-19 09:59N 59°27' E 024°46'0 0.0
2019-Jul-19 09:29N 59°27' E 024°46'0 0.0
2019-Jul-19 08:59N 59°27' E 024°46'0 0.0
2019-Jul-19 08:29N 59°27' E 024°46'0 0.0
2019-Jul-19 07:59N 59°27' E 024°46'0 0.0
2019-Jul-19 07:29N 59°27' E 024°46'0 0.0
2019-Jul-19 06:59N 59°27' E 024°46'0 0.0
2019-Jul-19 06:29N 59°27' E 024°46'0 0.0
2019-Jul-19 05:59N 59°27' E 024°46'0 0.0
2019-Jul-19 05:29N 59°27' E 024°46'0 0.0
2019-Jul-19 04:59N 59°27' E 024°46'0 0.0
2019-Jul-19 04:29N 59°27' E 024°46'1 3.0
2019-Jul-19 04:01N 59°28' E 024°46'612.6
2019-Jul-19 03:31N 59°30' E 024°34'612.2
2019-Jul-19 03:00N 59°30' E 024°22'612.4
2019-Jul-19 02:30N 59°30' E 024°09'612.9
2019-Jul-19 02:00N 59°30' E 023°56'613.1
2019-Jul-19 01:31N 59°30' E 023°44'713.0
2019-Jul-19 01:01N 59°31' E 023°31'713.1
2019-Jul-19 00:31N 59°31' E 023°18'612.9
2019-Jul-19 00:01N 59°30' E 023°06'612.8
2019-Jul-18 23:31N 59°28' E 022°54'612.8
2019-Jul-18 23:01N 59°26' E 022°42'612.9
2019-Jul-18 22:30N 59°24' E 022°30'612.2
2019-Jul-18 22:00N 59°24' E 022°18'510.3
2019-Jul-18 21:31N 59°28' E 022°22'713.5
2019-Jul-18 21:01N 59°31' E 022°35'713.3
2019-Jul-18 20:30N 59°33' E 022°47'713.3
2019-Jul-18 20:00N 59°35' E 022°59'713.4
2019-Jul-18 19:31N 59°37' E 023°12'713.3
2019-Jul-18 19:00N 59°39' E 023°25'613.0
2019-Jul-18 18:30N 59°40' E 023°37'713.2
2019-Jul-18 18:00N 59°42' E 023°50'713.5
2019-Jul-18 17:30N 59°44' E 024°03'713.6
2019-Jul-18 17:00N 59°46' E 024°16'713.4
2019-Jul-18 16:30N 59°48' E 024°29'713.2
2019-Jul-18 16:01N 59°50' E 024°41'713.4
2019-Jul-18 15:31N 59°54' E 024°52'612.8
2019-Jul-18 15:00N 59°60' E 024°57'612.2
2019-Jul-18 14:30N 60°06' E 024°54'3 6.5
2019-Jul-18 14:00N 60°09' E 024°55'0 0.0
2019-Jul-18 13:30N 60°09' E 024°55'0 0.0
2019-Jul-18 13:00N 60°09' E 024°55'0 0.0
2019-Jul-18 12:30N 60°09' E 024°55'0 0.0
2019-Jul-18 11:57N 60°09' E 024°55'0 0.0
2019-Jul-18 11:30N 60°09' E 024°55'0 0.0
2019-Jul-18 10:54N 60°09' E 024°55'0 0.0
2019-Jul-18 10:30N 60°09' E 024°55'0 0.0
2019-Jul-18 10:00N 60°09' E 024°55'0 0.0
2019-Jul-18 09:30N 60°09' E 024°55'0 0.0
2019-Jul-18 09:00N 60°09' E 024°55'0 0.0
2019-Jul-18 08:30N 60°09' E 024°55'0 0.0
2019-Jul-18 07:54N 60°09' E 024°55'0 0.0
2019-Jul-18 07:30N 60°09' E 024°55'0 0.0
2019-Jul-18 06:57N 60°09' E 024°55'0 0.0
2019-Jul-18 06:30N 60°09' E 024°55'0 0.0
2019-Jul-18 06:00N 60°09' E 024°55'0 0.0
2019-Jul-18 05:27N 60°09' E 024°55'0 0.0
2019-Jul-18 05:00N 60°09' E 024°55'0 0.0
2019-Jul-18 04:30N 60°09' E 024°55'0 0.0
2019-Jul-18 04:00N 60°09' E 024°55'0 0.1
2019-Jul-18 03:30N 60°09' E 024°55'2 4.2
2019-Jul-18 03:01N 60°07' E 024°54'714.1
2019-Jul-18 02:30N 59°60' E 024°58'815.8
2019-Jul-18 02:01N 59°57' E 025°13'816.8
2019-Jul-18 01:31N 59°53' E 025°28'816.3
2019-Jul-18 01:01N 59°54' E 025°44'817.0
2019-Jul-18 00:31N 59°57' E 025°60'816.8
2019-Jul-18 00:01N 59°59' E 026°16'816.9
2019-Jul-17 23:30N 60°01' E 026°32'816.5
2019-Jul-17 23:01N 60°00' E 026°49'816.3
2019-Jul-17 22:31N 59°60' E 027°05'917.1
2019-Jul-17 22:00N 60°04' E 027°20'917.0
2019-Jul-17 21:30N 60°09' E 027°35'815.8
2019-Jul-17 21:01N 60°12' E 027°49'816.5
2019-Jul-17 20:31N 60°09' E 028°05'816.1
2019-Jul-17 20:00N 60°06' E 028°20'816.3
2019-Jul-17 19:31N 60°03' E 028°35'816.7
2019-Jul-17 19:00N 60°02' E 028°52'816.3
2019-Jul-17 18:30N 60°02' E 029°08'816.1
2019-Jul-17 18:00N 60°00' E 029°24'220.6 120 / 171005.0 15.0
2019-Jul-17 17:52N 60°02' E 029°28'3 8.1
2019-Jul-17 17:30N 60°01' E 029°33'611.5
2019-Jul-17 17:00N 59°59' E 029°44'510.7
2019-Jul-17 16:30N 59°57' E 029°54'510.2
2019-Jul-17 16:00N 59°56' E 030°04'4 7.4
2019-Jul-17 15:30N 59°57' E 030°11'0 0.1
2019-Jul-17 14:57N 59°57' E 030°11'0 0.0
2019-Jul-17 14:30N 59°57' E 030°11'0 0.0
2019-Jul-17 14:00N 59°57' E 030°11'0 0.0
2019-Jul-17 13:24N 59°57' E 030°11'0 0.0
2019-Jul-17 12:57N 59°57' E 030°11'0 0.0
2019-Jul-17 12:24N 59°57' E 030°11'0 0.0
2019-Jul-17 11:57N 59°57' E 030°11'0 0.0
2019-Jul-17 11:21N 59°57' E 030°11'0 0.0
2019-Jul-17 10:57N 59°57' E 030°11'0 0.0
2019-Jul-17 10:27N 59°57' E 030°11'0 0.0
2019-Jul-17 10:00N 59°57' E 030°11'0 0.0
2019-Jul-17 09:27N 59°57' E 030°11'0 0.0
2019-Jul-17 09:00N 59°57' E 030°11'0 0.0
2019-Jul-17 08:27N 59°57' E 030°11'0 0.0
2019-Jul-17 08:00N 59°57' E 030°11'0 0.0
2019-Jul-17 07:18N 59°57' E 030°11'0 0.0
2019-Jul-17 06:57N 59°57' E 030°11'0 0.0
2019-Jul-17 06:30N 59°57' E 030°11'0 0.0
2019-Jul-17 06:00N 59°57' E 030°11'0 0.0
2019-Jul-17 05:27N 59°57' E 030°11'0 0.0
2019-Jul-17 04:45N 59°57' E 030°11'0 0.0
2019-Jul-17 04:21N 59°57' E 030°11'0 0.0
2019-Jul-17 03:57N 59°57' E 030°11'0 0.0
2019-Jul-17 03:27N 59°57' E 030°11'0 0.0
2019-Jul-17 02:45N 59°57' E 030°11'0 0.0
2019-Jul-17 02:30N 59°57' E 030°11'0 0.0
2019-Jul-17 01:51N 59°57' E 030°11'0 0.0
2019-Jul-17 01:30N 59°57' E 030°11'0 0.0
2019-Jul-17 00:51N 59°57' E 030°11'0 0.0
2019-Jul-17 00:27N 59°57' E 030°11'0 0.0
2019-Jul-17 00:00N 59°57' E 030°11'0 0.0
2019-Jul-16 23:27N 59°57' E 030°11'0 0.0
2019-Jul-16 23:00N 59°57' E 030°11'0 0.0
2019-Jul-16 22:27N 59°57' E 030°11'0 0.0
2019-Jul-16 21:54N 59°57' E 030°11'0 0.0
2019-Jul-16 21:27N 59°57' E 030°11'0 0.0
2019-Jul-16 20:57N 59°57' E 030°11'0 0.0
2019-Jul-16 20:09N 59°57' E 030°11'0 0.0
2019-Jul-16 20:00N 59°57' E 030°11'0 0.0
2019-Jul-16 19:18N 59°57' E 030°11'0 0.0
2019-Jul-16 18:51N 59°57' E 030°11'0 0.0
2019-Jul-16 18:27N 59°57' E 030°11'0 0.0
2019-Jul-16 17:57N 59°57' E 030°11'0 0.0
2019-Jul-16 17:30N 59°57' E 030°11'0 0.0
2019-Jul-16 16:57N 59°57' E 030°11'0 0.0
2019-Jul-16 16:30N 59°57' E 030°11'0 0.0
2019-Jul-16 16:00N 59°57' E 030°11'0 0.0
2019-Jul-16 15:30N 59°57' E 030°11'0 0.0
2019-Jul-16 14:57N 59°57' E 030°11'0 0.0
2019-Jul-16 14:30N 59°57' E 030°11'0 0.0
2019-Jul-16 14:00N 59°57' E 030°11'0 0.0
2019-Jul-16 13:30N 59°57' E 030°11'0 0.0
2019-Jul-16 12:57N 59°57' E 030°11'0 0.0
2019-Jul-16 12:15N 59°57' E 030°11'0 0.0
2019-Jul-16 12:00N 59°57' E 030°11'0 0.0
2019-Jul-16 11:30N 59°57' E 030°11'0 0.0
2019-Jul-16 10:57N 59°57' E 030°11'0 0.0
2019-Jul-16 10:27N 59°57' E 030°11'0 0.0
2019-Jul-16 09:57N 59°57' E 030°11'0 0.0
2019-Jul-16 09:30N 59°57' E 030°11'0 0.0
2019-Jul-16 08:57N 59°57' E 030°11'0 0.0
2019-Jul-16 08:27N 59°57' E 030°11'0 0.0
2019-Jul-16 07:57N 59°57' E 030°11'0 0.0
2019-Jul-16 07:30N 59°57' E 030°11'0 0.0
2019-Jul-16 07:00N 59°57' E 030°11'0 0.0
2019-Jul-16 06:30N 59°57' E 030°11'0 0.0
2019-Jul-16 05:57N 59°57' E 030°11'0 0.0
2019-Jul-16 05:30N 59°57' E 030°11'0 0.0
2019-Jul-16 05:00N 59°57' E 030°11'0 0.0
2019-Jul-16 04:30N 59°57' E 030°11'0 0.0
2019-Jul-16 04:00N 59°57' E 030°11'0 0.7
2019-Jul-16 03:30N 59°57' E 030°11'4 8.4
2019-Jul-16 03:00N 59°56' E 030°02'5 9.5
2019-Jul-16 02:29N 59°57' E 029°53'15 9.5
2019-Jul-16 00:53N 60°02' E 029°24'411.2
2019-Jul-16 00:30N 60°02' E 029°16'510.9
2019-Jul-16 00:00N 60°02' E 029°05'611.4
2019-Jul-15 23:30N 60°02' E 028°53'611.4
2019-Jul-15 23:00N 60°02' E 028°42'611.7
2019-Jul-15 22:30N 60°03' E 028°30'611.4
2019-Jul-15 22:01N 60°05' E 028°20'611.2
2019-Jul-15 21:30N 60°08' E 028°10'611.5
2019-Jul-15 21:00N 60°09' E 027°59'611.4
2019-Jul-15 20:30N 60°11' E 027°48'611.7
2019-Jul-15 20:00N 60°08' E 027°37'611.8
2019-Jul-15 19:31N 60°05' E 027°27'611.7
2019-Jul-15 19:00N 60°02' E 027°17'611.9
2019-Jul-15 18:30N 59°59' E 027°07'611.4
2019-Jul-15 18:00N 59°58' E 026°56'4310.7
2019-Jul-15 18:00N 59°54' E 026°54'715.4 190 / 151006.0 17.0
2019-Jul-15 17:30N 59°60' E 026°44'611.9
2019-Jul-15 17:00N 59°59' E 026°32'611.9
2019-Jul-15 16:30N 59°57' E 026°21'612.0
2019-Jul-15 15:59N 59°56' E 026°09'712.6
2019-Jul-15 15:27N 59°54' E 025°56'612.2
2019-Jul-15 15:00N 59°52' E 025°45'711.7
2019-Jul-15 14:24N 59°51' E 025°32'511.4
2019-Jul-15 14:00N 59°50' E 025°23'611.3
2019-Jul-15 13:30N 59°49' E 025°12'611.6
2019-Jul-15 13:00N 59°48' E 025°01'611.2
2019-Jul-15 12:30N 59°46' E 024°50'611.1
2019-Jul-15 12:00N 59°45' E 024°39'611.1
2019-Jul-15 11:30N 59°44' E 024°28'611.0
2019-Jul-15 10:59N 59°42' E 024°18'511.1
2019-Jul-15 10:30N 59°41' E 024°08'611.3
2019-Jul-15 10:00N 59°38' E 023°57'611.2
2019-Jul-15 09:30N 59°36' E 023°47'611.3
2019-Jul-15 09:00N 59°35' E 023°36'611.7
2019-Jul-15 08:30N 59°33' E 023°25'611.5
2019-Jul-15 08:00N 59°32' E 023°14'611.2
2019-Jul-15 07:30N 59°30' E 023°04'611.5
2019-Jul-15 07:00N 59°28' E 022°53'611.6
2019-Jul-15 06:27N 59°26' E 022°41'1011.9
2019-Jul-15 05:38N 59°23' E 022°23'112.2
2019-Jul-15 05:30N 59°23' E 022°20'612.2
2019-Jul-15 05:00N 59°23' E 022°08'612.1
2019-Jul-15 04:30N 59°23' E 021°56'711.9
2019-Jul-15 03:57N 59°24' E 021°43'512.0
2019-Jul-15 03:30N 59°24' E 021°32'612.0
2019-Jul-15 03:00N 59°24' E 021°21'612.0
2019-Jul-15 02:30N 59°24' E 021°09'611.8
2019-Jul-15 01:59N 59°24' E 020°57'2711.4
2019-Jul-14 23:35N 59°30' E 020°04'111.9
2019-Jul-14 23:30N 59°31' E 020°04'1011.3
2019-Jul-14 22:35N 59°40' E 019°53'112.3
2019-Jul-14 22:30N 59°40' E 019°51'711.9
2019-Jul-14 21:53N 59°46' E 019°42'510.5
2019-Jul-14 21:25N 59°47' E 019°33'711.5
2019-Jul-14 20:49N 59°45' E 019°19'413.9
2019-Jul-14 20:30N 59°44' E 019°11'915.2
2019-Jul-14 19:56N 59°40' E 018°56'6 9.9
2019-Jul-14 19:22N 59°36' E 018°48'711.1
2019-Jul-14 18:44N 59°33' E 018°36'3 9.9
2019-Jul-14 18:27N 59°31' E 018°31'410.2
2019-Jul-14 18:00N 59°28' E 018°26'4 8.4
2019-Jul-14 17:30N 59°23' E 018°27'3 6.6
2019-Jul-14 17:00N 59°22' E 018°21'510.7
2019-Jul-14 16:30N 59°20' E 018°11'2 3.5
2019-Jul-14 15:58N 59°21' E 018°08'0 0.0
2019-Jul-14 15:25N 59°21' E 018°08'0 0.0
2019-Jul-14 14:58N 59°21' E 018°08'0 0.0
2019-Jul-14 14:28N 59°21' E 018°08'0 0.0
2019-Jul-14 13:58N 59°21' E 018°08'0 0.0
2019-Jul-14 13:28N 59°21' E 018°08'0 0.0
2019-Jul-14 12:55N 59°21' E 018°08'0 0.0
2019-Jul-14 12:28N 59°21' E 018°08'0 0.0
2019-Jul-14 11:58N 59°21' E 018°08'0 0.0
2019-Jul-14 11:25N 59°21' E 018°08'0 0.0
2019-Jul-14 10:58N 59°21' E 018°08'0 0.0
2019-Jul-14 10:28N 59°21' E 018°08'0 0.0
2019-Jul-14 09:59N 59°21' E 018°08'0 0.0
2019-Jul-14 09:25N 59°21' E 018°08'0 0.0
2019-Jul-14 08:55N 59°21' E 018°08'0 0.0
2019-Jul-14 08:29N 59°21' E 018°08'0 0.0
2019-Jul-14 07:58N 59°21' E 018°08'0 0.0
2019-Jul-14 07:25N 59°21' E 018°08'0 0.0
2019-Jul-14 06:58N 59°21' E 018°08'0 0.0
2019-Jul-14 06:25N 59°21' E 018°08'0 0.0
2019-Jul-14 05:58N 59°21' E 018°08'2 3.4
2019-Jul-14 05:30N 59°20' E 018°11'510.8
2019-Jul-14 05:00N 59°23' E 018°20'3 6.9
2019-Jul-14 04:30N 59°23' E 018°27'4 8.5
2019-Jul-14 04:00N 59°27' E 018°26'510.4
2019-Jul-14 03:29N 59°32' E 018°32'5 9.7
2019-Jul-14 03:00N 59°34' E 018°40'612.0
2019-Jul-14 02:30N 59°37' E 018°50'510.1
2019-Jul-14 02:00N 59°41' E 018°58'916.6
2019-Jul-14 01:29N 59°44' E 019°13'814.4
2019-Jul-14 00:56N 59°47' E 019°28'613.5
2019-Jul-14 00:28N 59°49' E 019°40'714.4
2019-Jul-14 00:00N 59°45' E 019°51'915.3
2019-Jul-13 23:26N 59°38' E 020°03'1115.7
2019-Jul-13 22:45N 59°36' E 020°24'616.3
2019-Jul-13 22:24N 59°36' E 020°35'615.9
2019-Jul-13 22:00N 59°36' E 020°47'816.1
2019-Jul-13 21:30N 59°32' E 021°02'816.1
2019-Jul-13 21:00N 59°29' E 021°16'816.2
2019-Jul-13 20:30N 59°26' E 021°31'816.5
2019-Jul-13 20:00N 59°26' E 021°47'917.4
2019-Jul-13 19:30N 59°27' E 022°04'917.4
2019-Jul-13 19:00N 59°28' E 022°21'917.5
2019-Jul-13 18:30N 59°31' E 022°37'917.8
2019-Jul-13 18:00N 59°34' E 022°54'917.8
2019-Jul-13 17:30N 59°37' E 023°11'917.8
2019-Jul-13 17:00N 59°39' E 023°28'917.6
2019-Jul-13 16:30N 59°41' E 023°45'917.4
2019-Jul-13 16:00N 59°44' E 024°01'917.1
2019-Jul-13 15:30N 59°46' E 024°17'816.7
2019-Jul-13 15:00N 59°49' E 024°33'816.6
2019-Jul-13 14:30N 59°52' E 024°48'816.0
2019-Jul-13 14:00N 59°59' E 024°57'714.3
2019-Jul-13 13:30N 60°06' E 024°54'3 5.8
2019-Jul-13 13:00N 60°09' E 024°55'0 0.0
2019-Jul-13 12:28N 60°09' E 024°55'0 0.0
2019-Jul-13 11:58N 60°09' E 024°55'0 0.0
2019-Jul-13 11:28N 60°09' E 024°55'0 0.0
2019-Jul-13 10:58N 60°09' E 024°55'0 0.0
2019-Jul-13 10:28N 60°09' E 024°55'0 0.0
2019-Jul-13 09:58N 60°09' E 024°55'0 0.0
2019-Jul-13 09:28N 60°09' E 024°55'0 0.0
2019-Jul-13 08:58N 60°09' E 024°55'0 0.0
2019-Jul-13 08:28N 60°09' E 024°55'0 0.0
2019-Jul-13 07:58N 60°09' E 024°55'0 0.0
2019-Jul-13 07:28N 60°09' E 024°55'0 0.0
2019-Jul-13 06:58N 60°09' E 024°55'0 0.0
2019-Jul-13 06:28N 60°09' E 024°55'0 0.0
2019-Jul-13 05:58N 60°09' E 024°55'0 0.0
2019-Jul-13 05:28N 60°09' E 024°55'0 0.0
2019-Jul-13 04:58N 60°09' E 024°55'0 0.0
2019-Jul-13 04:28N 60°09' E 024°55'0 0.0
2019-Jul-13 04:01N 60°09' E 024°55'1 1.7
2019-Jul-13 03:30N 60°08' E 024°54'4 8.0
2019-Jul-13 03:00N 60°04' E 024°53'713.4
2019-Jul-13 02:30N 59°59' E 025°02'713.1
2019-Jul-13 02:00N 59°57' E 025°15'917.5
2019-Jul-13 01:31N 59°53' E 025°31'918.3
2019-Jul-13 01:00N 59°55' E 025°49'1018.5
2019-Jul-13 00:28N 59°58' E 026°08'918.5
2019-Jul-13 00:01N 60°00' E 026°24'917.2
2019-Jul-12 23:30N 60°01' E 026°41'918.0
2019-Jul-12 23:00N 59°59' E 026°59'917.4
2019-Jul-12 22:29N 60°03' E 027°16'918.0
2019-Jul-12 22:01N 60°08' E 027°30'917.6
2019-Jul-12 21:30N 60°12' E 027°46'917.2
2019-Jul-12 21:01N 60°10' E 028°03'917.7
2019-Jul-12 20:30N 60°07' E 028°19'816.9
2019-Jul-12 20:00N 60°03' E 028°34'917.9
2019-Jul-12 19:30N 60°02' E 028°53'1017.6
2019-Jul-12 18:56N 60°02' E 029°12'1711.9
2019-Jul-12 17:31N 59°59' E 029°46'0 7.4
2019-Jul-12 17:30N 59°59' E 029°46'5 9.6
2019-Jul-12 17:00N 59°56' E 029°54'5 9.7
2019-Jul-12 16:30N 59°56' E 030°04'4 7.5
2019-Jul-12 16:00N 59°57' E 030°11'0 0.3
2019-Jul-12 15:29N 59°57' E 030°11'0 0.0
2019-Jul-12 14:56N 59°57' E 030°11'0 0.0
2019-Jul-12 14:29N 59°57' E 030°11'0 0.0
2019-Jul-12 13:59N 59°57' E 030°11'0 0.0
2019-Jul-12 13:29N 59°57' E 030°11'0 0.0
2019-Jul-12 12:59N 59°57' E 030°11'0 0.0
2019-Jul-12 12:29N 59°57' E 030°11'0 0.0
2019-Jul-12 11:59N 59°57' E 030°11'0 0.0
2019-Jul-12 11:29N 59°57' E 030°11'0 0.0
2019-Jul-12 10:59N 59°57' E 030°11'0 0.0
2019-Jul-12 10:29N 59°57' E 030°11'0 0.0
2019-Jul-12 09:59N 59°57' E 030°11'0 0.0
2019-Jul-12 09:29N 59°57' E 030°11'0 0.0
2019-Jul-12 08:59N 59°57' E 030°11'0 0.0
2019-Jul-12 08:29N 59°57' E 030°11'0 0.0
2019-Jul-12 07:59N 59°57' E 030°11'0 0.0
2019-Jul-12 07:29N 59°57' E 030°11'0 0.0
2019-Jul-12 06:59N 59°57' E 030°11'0 0.0
2019-Jul-12 06:29N 59°57' E 030°11'0 0.0
2019-Jul-12 05:59N 59°57' E 030°11'0 0.0
2019-Jul-12 05:29N 59°57' E 030°11'0 0.0
2019-Jul-12 04:59N 59°57' E 030°11'0 0.0
2019-Jul-12 04:29N 59°57' E 030°11'  
Track history (hours):
 
Tides and Currents Weather Stations Pressure Air Temp Water Temp Dewpoint Dewpoint Depression Visibility Wind Speed Wind Dir Waves Ship Positions

Serenade Of The Seas

Operator: Royal Caribbean Cruises Ltd

Last reported at 2019-Jul-22 04:24 UTC. Time now 2019-Jul-22 05:23 UTC.
Position N 59°23' E 021°54'.

Length 294 m; draft 8.5 m.

Type: Ship. MMSI: 311492000.

Date/timePositionNaut miles runAvg speedWind from/ knotsBaromVisibWave heightAir tempDewpointWater temp
2019-Jul-22 04:24N 59°23' E 021°54'511.8
2019-Jul-22 04:00N 59°24' E 021°45'611.8
2019-Jul-22 03:31N 59°24' E 021°33'611.7
2019-Jul-22 03:00N 59°23' E 021°22'611.3
2019-Jul-22 02:30N 59°24' E 021°10'3510.9
2019-Jul-21 23:18N 59°32' E 020°04'511.6
2019-Jul-21 22:54N 59°36' E 019°60'512.1
2019-Jul-21 22:30N 59°40' E 019°53'712.3
2019-Jul-21 21:55N 59°45' E 019°44'10 9.7
2019-Jul-21 20:51N 59°46' E 019°23'711.6
2019-Jul-21 20:17N 59°44' E 019°11'617.2
2019-Jul-21 19:55N 59°41' E 018°60'611.5
2019-Jul-21 19:23N 59°37' E 018°50'512.0
2019-Jul-21 18:57N 59°35' E 018°41'510.3
2019-Jul-21 18:30N 59°32' E 018°34'510.2
2019-Jul-21 18:00N 59°29' E 018°27'5 9.4
2019-Jul-21 17:30N 59°24' E 018°26'3 5.8
2019-Jul-21 17:00N 59°22' E 018°22'610.9
2019-Jul-21 16:30N 59°20' E 018°12'2 4.1
2019-Jul-21 15:56N 59°21' E 018°08'0 0.0
2019-Jul-21 15:26N 59°21' E 018°08'0 0.0
2019-Jul-21 14:59N 59°21' E 018°08'0 0.0
2019-Jul-21 14:29N 59°21' E 018°08'0 0.0
2019-Jul-21 13:59N 59°21' E 018°08'0 0.0
2019-Jul-21 13:29N 59°21' E 018°08'0 0.0
2019-Jul-21 12:59N 59°21' E 018°08'0 0.0
2019-Jul-21 12:29N 59°21' E 018°08'0 0.0
2019-Jul-21 11:59N 59°21' E 018°08'0 0.0
2019-Jul-21 11:29N 59°21' E 018°08'0 0.0
2019-Jul-21 10:59N 59°21' E 018°08'0 0.0
2019-Jul-21 10:29N 59°21' E 018°08'0 0.0
2019-Jul-21 09:59N 59°21' E 018°08'0 0.0
2019-Jul-21 09:29N 59°21' E 018°08'0 0.0
2019-Jul-21 08:59N 59°21' E 018°08'0 0.0
2019-Jul-21 08:29N 59°21' E 018°08'0 0.0
2019-Jul-21 07:59N 59°21' E 018°08'0 0.0
2019-Jul-21 07:29N 59°21' E 018°08'0 0.0
2019-Jul-21 06:59N 59°21' E 018°08'0 0.0
2019-Jul-21 06:29N 59°21' E 018°08'0 0.0
2019-Jul-21 05:59N 59°21' E 018°08'0 0.7
2019-Jul-21 05:30N 59°21' E 018°08'4 8.4
2019-Jul-21 05:00N 59°22' E 018°16'510.1
2019-Jul-21 04:31N 59°21' E 018°26'5 9.9
2019-Jul-21 04:00N 59°26' E 018°23'611.3
2019-Jul-21 03:30N 59°31' E 018°30'510.1
2019-Jul-21 03:00N 59°34' E 018°38'611.9
2019-Jul-21 02:30N 59°37' E 018°48'510.6
2019-Jul-21 02:00N 59°40' E 018°56'815.6
2019-Jul-21 01:31N 59°44' E 019°10'815.9
2019-Jul-21 01:00N 59°47' E 019°25'815.7
2019-Jul-21 00:30N 59°48' E 019°40'917.9
2019-Jul-21 00:00N 59°43' E 019°55'1019.3
2019-Jul-20 23:30N 59°36' E 020°08'918.8
2019-Jul-20 23:00N 59°27' E 020°11'918.4
2019-Jul-20 22:30N 59°19' E 020°02'1019.1
2019-Jul-20 22:00N 59°12' E 019°50'1019.2
2019-Jul-20 21:30N 59°05' E 019°38'1019.2
2019-Jul-20 21:00N 58°57' E 019°26'1019.4
2019-Jul-20 20:30N 58°50' E 019°14'1019.4
2019-Jul-20 20:00N 58°42' E 019°02'1019.3
2019-Jul-20 19:30N 58°35' E 018°50'1019.2
2019-Jul-20 19:00N 58°27' E 018°40'1019.1
2019-Jul-20 18:30N 58°19' E 018°30'918.9
2019-Jul-20 18:00N 58°11' E 018°21'1019.1
2019-Jul-20 17:30N 58°03' E 018°11'918.2
2019-Jul-20 17:00N 57°54' E 018°09'918.8
2019-Jul-20 16:30N 57°44' E 018°12'713.5
2019-Jul-20 16:00N 57°38' E 018°16'0 0.4
2019-Jul-20 15:21N 57°38' E 018°16'0 0.0
2019-Jul-20 14:39N 57°38' E 018°16'0 0.0
2019-Jul-20 14:15N 57°38' E 018°16'0 0.0
2019-Jul-20 13:51N 57°38' E 018°16'0 0.0
2019-Jul-20 13:06N 57°38' E 018°16'0 0.0
2019-Jul-20 12:57N 57°38' E 018°16'0 0.0
2019-Jul-20 12:27N 57°38' E 018°16'0 0.0
2019-Jul-20 12:00N 57°38' E 018°16'0 0.0
2019-Jul-20 11:30N 57°38' E 018°16'0 0.0
2019-Jul-20 11:00N 57°38' E 018°16'0 0.0
2019-Jul-20 10:27N 57°38' E 018°16'0 0.0
2019-Jul-20 09:54N 57°38' E 018°16'0 0.0
2019-Jul-20 09:30N 57°38' E 018°16'0 0.0
2019-Jul-20 09:00N 57°38' E 018°16'0 0.0
2019-Jul-20 08:27N 57°38' E 018°16'0 0.0
2019-Jul-20 07:48N 57°38' E 018°16'0 0.0
2019-Jul-20 07:18N 57°38' E 018°16'0 0.0
2019-Jul-20 06:51N 57°38' E 018°16'0 0.0
2019-Jul-20 06:27N 57°38' E 018°16'0 0.0
2019-Jul-20 05:57N 57°38' E 018°16'0 0.0
2019-Jul-20 05:30N 57°38' E 018°16'3 5.7
2019-Jul-20 05:00N 57°39' E 018°11'815.7
2019-Jul-20 04:30N 57°47' E 018°14'816.9
2019-Jul-20 04:00N 57°54' E 018°22'917.2
2019-Jul-20 03:30N 57°58' E 018°37'917.3
2019-Jul-20 03:00N 58°01' E 018°52'917.2
2019-Jul-20 02:30N 58°05' E 019°07'917.4
2019-Jul-20 02:00N 58°08' E 019°21'917.8
2019-Jul-20 01:30N 58°14' E 019°34'917.6
2019-Jul-20 01:00N 58°20' E 019°47'917.6
2019-Jul-20 00:30N 58°25' E 020°00'917.5
2019-Jul-20 00:00N 58°31' E 020°13'917.7
2019-Jul-19 23:30N 58°36' E 020°26'917.6
2019-Jul-19 23:00N 58°42' E 020°39'917.6
2019-Jul-19 22:30N 58°47' E 020°53'917.5
2019-Jul-19 22:00N 58°53' E 021°06'917.4
2019-Jul-19 21:30N 58°59' E 021°19'917.3
2019-Jul-19 21:00N 59°05' E 021°30'917.2
2019-Jul-19 20:30N 59°12' E 021°41'917.3
2019-Jul-19 20:00N 59°17' E 021°54'917.3
2019-Jul-19 19:30N 59°22' E 022°07'917.4
2019-Jul-19 19:00N 59°28' E 022°21'917.4
2019-Jul-19 18:30N 59°31' E 022°37'917.4
2019-Jul-19 18:00N 59°33' E 022°53'917.4
2019-Jul-19 17:30N 59°35' E 023°10'917.3
2019-Jul-19 17:00N 59°34' E 023°27'1817.3
2019-Jul-19 15:58N 59°31' E 024°01'817.2
2019-Jul-19 15:31N 59°30' E 024°17'816.6
2019-Jul-19 15:00N 59°30' E 024°33'611.9
2019-Jul-19 14:30N 59°31' E 024°45'4 7.5
2019-Jul-19 13:59N 59°27' E 024°46'0 0.0
2019-Jul-19 13:29N 59°27' E 024°46'0 0.0
2019-Jul-19 12:59N 59°27' E 024°46'0 0.0
2019-Jul-19 12:29N 59°27' E 024°46'0 0.0
2019-Jul-19 11:59N 59°27' E 024°46'0 0.0
2019-Jul-19 11:26N 59°27' E 024°46'0 0.0
2019-Jul-19 10:56N 59°27' E 024°46'0 0.0
2019-Jul-19 10:29N 59°27' E 024°46'0 0.0
2019-Jul-19 09:59N 59°27' E 024°46'0 0.0
2019-Jul-19 09:29N 59°27' E 024°46'0 0.0
2019-Jul-19 08:59N 59°27' E 024°46'0 0.0
2019-Jul-19 08:29N 59°27' E 024°46'0 0.0
2019-Jul-19 07:59N 59°27' E 024°46'0 0.0
2019-Jul-19 07:29N 59°27' E 024°46'0 0.0
2019-Jul-19 06:59N 59°27' E 024°46'0 0.0
2019-Jul-19 06:29N 59°27' E 024°46'0 0.0
2019-Jul-19 05:59N 59°27' E 024°46'0 0.0
2019-Jul-19 05:29N 59°27' E 024°46'0 0.0
2019-Jul-19 04:59N 59°27' E 024°46'0 0.0
2019-Jul-19 04:29N 59°27' E 024°46'1 3.0
2019-Jul-19 04:01N 59°28' E 024°46'612.6
2019-Jul-19 03:31N 59°30' E 024°34'612.2
2019-Jul-19 03:00N 59°30' E 024°22'612.4
2019-Jul-19 02:30N 59°30' E 024°09'612.9
2019-Jul-19 02:00N 59°30' E 023°56'613.1
2019-Jul-19 01:31N 59°30' E 023°44'713.0
2019-Jul-19 01:01N 59°31' E 023°31'713.1
2019-Jul-19 00:31N 59°31' E 023°18'612.9
2019-Jul-19 00:01N 59°30' E 023°06'612.8
2019-Jul-18 23:31N 59°28' E 022°54'612.8
2019-Jul-18 23:01N 59°26' E 022°42'612.9
2019-Jul-18 22:30N 59°24' E 022°30'612.2
2019-Jul-18 22:00N 59°24' E 022°18'510.3
2019-Jul-18 21:31N 59°28' E 022°22'713.5
2019-Jul-18 21:01N 59°31' E 022°35'713.3
2019-Jul-18 20:30N 59°33' E 022°47'713.3
2019-Jul-18 20:00N 59°35' E 022°59'713.4
2019-Jul-18 19:31N 59°37' E 023°12'713.3
2019-Jul-18 19:00N 59°39' E 023°25'613.0
2019-Jul-18 18:30N 59°40' E 023°37'713.2
2019-Jul-18 18:00N 59°42' E 023°50'713.5
2019-Jul-18 17:30N 59°44' E 024°03'713.6
2019-Jul-18 17:00N 59°46' E 024°16'713.4
2019-Jul-18 16:30N 59°48' E 024°29'713.2
2019-Jul-18 16:01N 59°50' E 024°41'713.4
2019-Jul-18 15:31N 59°54' E 024°52'612.8
2019-Jul-18 15:00N 59°60' E 024°57'612.2
2019-Jul-18 14:30N 60°06' E 024°54'3 6.5
2019-Jul-18 14:00N 60°09' E 024°55'0 0.0
2019-Jul-18 13:30N 60°09' E 024°55'0 0.0
2019-Jul-18 13:00N 60°09' E 024°55'0 0.0
2019-Jul-18 12:30N 60°09' E 024°55'0 0.0
2019-Jul-18 11:57N 60°09' E 024°55'0 0.0
2019-Jul-18 11:30N 60°09' E 024°55'0 0.0
2019-Jul-18 10:54N 60°09' E 024°55'0 0.0
2019-Jul-18 10:30N 60°09' E 024°55'0 0.0
2019-Jul-18 10:00N 60°09' E 024°55'0 0.0
2019-Jul-18 09:30N 60°09' E 024°55'0 0.0
2019-Jul-18 09:00N 60°09' E 024°55'0 0.0
2019-Jul-18 08:30N 60°09' E 024°55'0 0.0
2019-Jul-18 07:54N 60°09' E 024°55'0 0.0
2019-Jul-18 07:30N 60°09' E 024°55'0 0.0
2019-Jul-18 06:57N 60°09' E 024°55'0 0.0
2019-Jul-18 06:30N 60°09' E 024°55'0 0.0
2019-Jul-18 06:00N 60°09' E 024°55'0 0.0
2019-Jul-18 05:27N 60°09' E 024°55'0 0.0
2019-Jul-18 05:00N 60°09' E 024°55'0 0.0
2019-Jul-18 04:30N 60°09' E 024°55'0 0.0
2019-Jul-18 04:00N 60°09' E 024°55'0 0.1
2019-Jul-18 03:30N 60°09' E 024°55'2 4.2
2019-Jul-18 03:01N 60°07' E 024°54'714.1
2019-Jul-18 02:30N 59°60' E 024°58'815.8
2019-Jul-18 02:01N 59°57' E 025°13'816.8
2019-Jul-18 01:31N 59°53' E 025°28'816.3
2019-Jul-18 01:01N 59°54' E 025°44'817.0
2019-Jul-18 00:31N 59°57' E 025°60'816.8
2019-Jul-18 00:01N 59°59' E 026°16'816.9
2019-Jul-17 23:30N 60°01' E 026°32'816.5
2019-Jul-17 23:01N 60°00' E 026°49'816.3
2019-Jul-17 22:31N 59°60' E 027°05'917.1
2019-Jul-17 22:00N 60°04' E 027°20'917.0
2019-Jul-17 21:30N 60°09' E 027°35'815.8
2019-Jul-17 21:01N 60°12' E 027°49'816.5
2019-Jul-17 20:31N 60°09' E 028°05'816.1
2019-Jul-17 20:00N 60°06' E 028°20'816.3
2019-Jul-17 19:31N 60°03' E 028°35'816.7
2019-Jul-17 19:00N 60°02' E 028°52'816.3
2019-Jul-17 18:30N 60°02' E 029°08'816.1
2019-Jul-17 18:00N 60°00' E 029°24'220.6 120 / 171005.0 15.0
2019-Jul-17 17:52N 60°02' E 029°28'3 8.1
2019-Jul-17 17:30N 60°01' E 029°33'611.5
2019-Jul-17 17:00N 59°59' E 029°44'510.7
2019-Jul-17 16:30N 59°57' E 029°54'510.2
2019-Jul-17 16:00N 59°56' E 030°04'4 7.4
2019-Jul-17 15:30N 59°57' E 030°11'0 0.1
2019-Jul-17 14:57N 59°57' E 030°11'0 0.0
2019-Jul-17 14:30N 59°57' E 030°11'0 0.0
2019-Jul-17 14:00N 59°57' E 030°11'0 0.0
2019-Jul-17 13:24N 59°57' E 030°11'0 0.0
2019-Jul-17 12:57N 59°57' E 030°11'0 0.0
2019-Jul-17 12:24N 59°57' E 030°11'0 0.0
2019-Jul-17 11:57N 59°57' E 030°11'0 0.0
2019-Jul-17 11:21N 59°57' E 030°11'0 0.0
2019-Jul-17 10:57N 59°57' E 030°11'0 0.0
2019-Jul-17 10:27N 59°57' E 030°11'0 0.0
2019-Jul-17 10:00N 59°57' E 030°11'0 0.0
2019-Jul-17 09:27N 59°57' E 030°11'0 0.0
2019-Jul-17 09:00N 59°57' E 030°11'0 0.0
2019-Jul-17 08:27N 59°57' E 030°11'0 0.0
2019-Jul-17 08:00N 59°57' E 030°11'0 0.0
2019-Jul-17 07:18N 59°57' E 030°11'0 0.0
2019-Jul-17 06:57N 59°57' E 030°11'0 0.0
2019-Jul-17 06:30N 59°57' E 030°11'0 0.0
2019-Jul-17 06:00N 59°57' E 030°11'0 0.0
2019-Jul-17 05:27N 59°57' E 030°11'0 0.0
2019-Jul-17 04:45N 59°57' E 030°11'0 0.0
2019-Jul-17 04:21N 59°57' E 030°11'0 0.0
2019-Jul-17 03:57N 59°57' E 030°11'0 0.0
2019-Jul-17 03:27N 59°57' E 030°11'0 0.0
2019-Jul-17 02:45N 59°57' E 030°11'0 0.0
2019-Jul-17 02:30N 59°57' E 030°11'0 0.0
2019-Jul-17 01:51N 59°57' E 030°11'0 0.0
2019-Jul-17 01:30N 59°57' E 030°11'0 0.0
2019-Jul-17 00:51N 59°57' E 030°11'0 0.0
2019-Jul-17 00:27N 59°57' E 030°11'0 0.0
2019-Jul-17 00:00N 59°57' E 030°11'0 0.0
2019-Jul-16 23:27N 59°57' E 030°11'0 0.0
2019-Jul-16 23:00N 59°57' E 030°11'0 0.0
2019-Jul-16 22:27N 59°57' E 030°11'0 0.0
2019-Jul-16 21:54N 59°57' E 030°11'0 0.0
2019-Jul-16 21:27N 59°57' E 030°11'0 0.0
2019-Jul-16 20:57N 59°57' E 030°11'0 0.0
2019-Jul-16 20:09N 59°57' E 030°11'0 0.0
2019-Jul-16 20:00N 59°57' E 030°11'0 0.0
2019-Jul-16 19:18N 59°57' E 030°11'0 0.0
2019-Jul-16 18:51N 59°57' E 030°11'0 0.0
2019-Jul-16 18:27N 59°57' E 030°11'0 0.0
2019-Jul-16 17:57N 59°57' E 030°11'0 0.0
2019-Jul-16 17:30N 59°57' E 030°11'0 0.0
2019-Jul-16 16:57N 59°57' E 030°11'0 0.0
2019-Jul-16 16:30N 59°57' E 030°11'0 0.0
2019-Jul-16 16:00N 59°57' E 030°11'0 0.0
2019-Jul-16 15:30N 59°57' E 030°11'0 0.0
2019-Jul-16 14:57N 59°57' E 030°11'0 0.0
2019-Jul-16 14:30N 59°57' E 030°11'0 0.0
2019-Jul-16 14:00N 59°57' E 030°11'0 0.0
2019-Jul-16 13:30N 59°57' E 030°11'0 0.0
2019-Jul-16 12:57N 59°57' E 030°11'0 0.0
2019-Jul-16 12:15N 59°57' E 030°11'0 0.0
2019-Jul-16 12:00N 59°57' E 030°11'0 0.0
2019-Jul-16 11:30N 59°57' E 030°11'0 0.0
2019-Jul-16 10:57N 59°57' E 030°11'0 0.0
2019-Jul-16 10:27N 59°57' E 030°11'0 0.0
2019-Jul-16 09:57N 59°57' E 030°11'0 0.0
2019-Jul-16 09:30N 59°57' E 030°11'0 0.0
2019-Jul-16 08:57N 59°57' E 030°11'0 0.0
2019-Jul-16 08:27N 59°57' E 030°11'0 0.0
2019-Jul-16 07:57N 59°57' E 030°11'0 0.0
2019-Jul-16 07:30N 59°57' E 030°11'0 0.0
2019-Jul-16 07:00N 59°57' E 030°11'0 0.0
2019-Jul-16 06:30N 59°57' E 030°11'0 0.0
2019-Jul-16 05:57N 59°57' E 030°11'0 0.0
2019-Jul-16 05:30N 59°57' E 030°11'0 0.0
2019-Jul-16 05:00N 59°57' E 030°11'0 0.0
2019-Jul-16 04:30N 59°57' E 030°11'0 0.0
2019-Jul-16 04:00N 59°57' E 030°11'0 0.7
2019-Jul-16 03:30N 59°57' E 030°11'4 8.4
2019-Jul-16 03:00N 59°56' E 030°02'5 9.5
2019-Jul-16 02:29N 59°57' E 029°53'15 9.5
2019-Jul-16 00:53N 60°02' E 029°24'411.2
2019-Jul-16 00:30N 60°02' E 029°16'510.9
2019-Jul-16 00:00N 60°02' E 029°05'611.4
2019-Jul-15 23:30N 60°02' E 028°53'611.4
2019-Jul-15 23:00N 60°02' E 028°42'611.7
2019-Jul-15 22:30N 60°03' E 028°30'611.4
2019-Jul-15 22:01N 60°05' E 028°20'611.2
2019-Jul-15 21:30N 60°08' E 028°10'611.5
2019-Jul-15 21:00N 60°09' E 027°59'611.4
2019-Jul-15 20:30N 60°11' E 027°48'611.7
2019-Jul-15 20:00N 60°08' E 027°37'611.8
2019-Jul-15 19:31N 60°05' E 027°27'611.7
2019-Jul-15 19:00N 60°02' E 027°17'611.9
2019-Jul-15 18:30N 59°59' E 027°07'611.4
2019-Jul-15 18:00N 59°58' E 026°56'4310.7
2019-Jul-15 18:00N 59°54' E 026°54'715.4 190 / 151006.0 17.0
2019-Jul-15 17:30N 59°60' E 026°44'611.9
2019-Jul-15 17:00N 59°59' E 026°32'611.9
2019-Jul-15 16:30N 59°57' E 026°21'612.0
2019-Jul-15 15:59N 59°56' E 026°09'712.6
2019-Jul-15 15:27N 59°54' E 025°56'612.2
2019-Jul-15 15:00N 59°52' E 025°45'711.7
2019-Jul-15 14:24N 59°51' E 025°32'511.4
2019-Jul-15 14:00N 59°50' E 025°23'611.3
2019-Jul-15 13:30N 59°49' E 025°12'611.6
2019-Jul-15 13:00N 59°48' E 025°01'611.2
2019-Jul-15 12:30N 59°46' E 024°50'611.1
2019-Jul-15 12:00N 59°45' E 024°39'611.1
2019-Jul-15 11:30N 59°44' E 024°28'611.0
2019-Jul-15 10:59N 59°42' E 024°18'511.1
2019-Jul-15 10:30N 59°41' E 024°08'611.3
2019-Jul-15 10:00N 59°38' E 023°57'611.2
2019-Jul-15 09:30N 59°36' E 023°47'611.3
2019-Jul-15 09:00N 59°35' E 023°36'611.7
2019-Jul-15 08:30N 59°33' E 023°25'611.5
2019-Jul-15 08:00N 59°32' E 023°14'611.2
2019-Jul-15 07:30N 59°30' E 023°04'611.5
2019-Jul-15 07:00N 59°28' E 022°53'611.6
2019-Jul-15 06:27N 59°26' E 022°41'1011.9
2019-Jul-15 05:38N 59°23' E 022°23'112.2
2019-Jul-15 05:30N 59°23' E 022°20'612.2
2019-Jul-15 05:00N 59°23' E 022°08'612.1
2019-Jul-15 04:30N 59°23' E 021°56'711.9
2019-Jul-15 03:57N 59°24' E 021°43'512.0
2019-Jul-15 03:30N 59°24' E 021°32'612.0
2019-Jul-15 03:00N 59°24' E 021°21'612.0
2019-Jul-15 02:30N 59°24' E 021°09'611.8
2019-Jul-15 01:59N 59°24' E 020°57'2711.4
2019-Jul-14 23:35N 59°30' E 020°04'111.9
2019-Jul-14 23:30N 59°31' E 020°04'1011.3
2019-Jul-14 22:35N 59°40' E 019°53'112.3
2019-Jul-14 22:30N 59°40' E 019°51'711.9
2019-Jul-14 21:53N 59°46' E 019°42'510.5
2019-Jul-14 21:25N 59°47' E 019°33'711.5
2019-Jul-14 20:49N 59°45' E 019°19'413.9
2019-Jul-14 20:30N 59°44' E 019°11'915.2
2019-Jul-14 19:56N 59°40' E 018°56'6 9.9
2019-Jul-14 19:22N 59°36' E 018°48'711.1
2019-Jul-14 18:44N 59°33' E 018°36'3 9.9
2019-Jul-14 18:27N 59°31' E 018°31'410.2
2019-Jul-14 18:00N 59°28' E 018°26'4 8.4
2019-Jul-14 17:30N 59°23' E 018°27'3 6.6
2019-Jul-14 17:00N 59°22' E 018°21'510.7
2019-Jul-14 16:30N 59°20' E 018°11'2 3.5
2019-Jul-14 15:58N 59°21' E 018°08'0 0.0
2019-Jul-14 15:25N 59°21' E 018°08'0 0.0
2019-Jul-14 14:58N 59°21' E 018°08'0 0.0
2019-Jul-14 14:28N 59°21' E 018°08'0 0.0
2019-Jul-14 13:58N 59°21' E 018°08'0 0.0
2019-Jul-14 13:28N 59°21' E 018°08'0 0.0
2019-Jul-14 12:55N 59°21' E 018°08'0 0.0
2019-Jul-14 12:28N 59°21' E 018°08'0 0.0
2019-Jul-14 11:58N 59°21' E 018°08'0 0.0
2019-Jul-14 11:25N 59°21' E 018°08'0 0.0
2019-Jul-14 10:58N 59°21' E 018°08'0 0.0
2019-Jul-14 10:28N 59°21' E 018°08'0 0.0
2019-Jul-14 09:59N 59°21' E 018°08'0 0.0
2019-Jul-14 09:25N 59°21' E 018°08'0 0.0
2019-Jul-14 08:55N 59°21' E 018°08'0 0.0
2019-Jul-14 08:29N 59°21' E 018°08'0 0.0
2019-Jul-14 07:58N 59°21' E 018°08'0 0.0
2019-Jul-14 07:25N 59°21' E 018°08'0 0.0
2019-Jul-14 06:58N 59°21' E 018°08'0 0.0
2019-Jul-14 06:25N 59°21' E 018°08'0 0.0
2019-Jul-14 05:58N 59°21' E 018°08'2 3.4
2019-Jul-14 05:30N 59°20' E 018°11'510.8
2019-Jul-14 05:00N 59°23' E 018°20'3 6.9
2019-Jul-14 04:30N 59°23' E 018°27'4 8.5
2019-Jul-14 04:00N 59°27' E 018°26'510.4
2019-Jul-14 03:29N 59°32' E 018°32'5 9.7
2019-Jul-14 03:00N 59°34' E 018°40'612.0
2019-Jul-14 02:30N 59°37' E 018°50'510.1
2019-Jul-14 02:00N 59°41' E 018°58'916.6
2019-Jul-14 01:29N 59°44' E 019°13'814.4
2019-Jul-14 00:56N 59°47' E 019°28'613.5
2019-Jul-14 00:28N 59°49' E 019°40'714.4
2019-Jul-14 00:00N 59°45' E 019°51'915.3
2019-Jul-13 23:26N 59°38' E 020°03'1115.7
2019-Jul-13 22:45N 59°36' E 020°24'616.3
2019-Jul-13 22:24N 59°36' E 020°35'615.9
2019-Jul-13 22:00N 59°36' E 020°47'816.1
2019-Jul-13 21:30N 59°32' E 021°02'816.1
2019-Jul-13 21:00N 59°29' E 021°16'816.2
2019-Jul-13 20:30N 59°26' E 021°31'816.5
2019-Jul-13 20:00N 59°26' E 021°47'917.4
2019-Jul-13 19:30N 59°27' E 022°04'917.4
2019-Jul-13 19:00N 59°28' E 022°21'917.5
2019-Jul-13 18:30N 59°31' E 022°37'917.8
2019-Jul-13 18:00N 59°34' E 022°54'917.8
2019-Jul-13 17:30N 59°37' E 023°11'917.8
2019-Jul-13 17:00N 59°39' E 023°28'917.6
2019-Jul-13 16:30N 59°41' E 023°45'917.4
2019-Jul-13 16:00N 59°44' E 024°01'917.1
2019-Jul-13 15:30N 59°46' E 024°17'816.7
2019-Jul-13 15:00N 59°49' E 024°33'816.6
2019-Jul-13 14:30N 59°52' E 024°48'816.0
2019-Jul-13 14:00N 59°59' E 024°57'714.3
2019-Jul-13 13:30N 60°06' E 024°54'3 5.8
2019-Jul-13 13:00N 60°09' E 024°55'0 0.0
2019-Jul-13 12:28N 60°09' E 024°55'0 0.0
2019-Jul-13 11:58N 60°09' E 024°55'0 0.0
2019-Jul-13 11:28N 60°09' E 024°55'0 0.0
2019-Jul-13 10:58N 60°09' E 024°55'0 0.0
2019-Jul-13 10:28N 60°09' E 024°55'0 0.0
2019-Jul-13 09:58N 60°09' E 024°55'0 0.0
2019-Jul-13 09:28N 60°09' E 024°55'0 0.0
2019-Jul-13 08:58N 60°09' E 024°55'0 0.0
2019-Jul-13 08:28N 60°09' E 024°55'0 0.0
2019-Jul-13 07:58N 60°09' E 024°55'0 0.0
2019-Jul-13 07:28N 60°09' E 024°55'0 0.0
2019-Jul-13 06:58N 60°09' E 024°55'0 0.0
2019-Jul-13 06:28N 60°09' E 024°55'0 0.0
2019-Jul-13 05:58N 60°09' E 024°55'0 0.0
2019-Jul-13 05:28N 60°09' E 024°55'0 0.0
2019-Jul-13 04:58N 60°09' E 024°55'0 0.0
2019-Jul-13 04:28N 60°09' E 024°55'0 0.0
2019-Jul-13 04:01N 60°09' E 024°55'1 1.7
2019-Jul-13 03:30N 60°08' E 024°54'4 8.0
2019-Jul-13 03:00N 60°04' E 024°53'713.4
2019-Jul-13 02:30N 59°59' E 025°02'713.1
2019-Jul-13 02:00N 59°57' E 025°15'917.5
2019-Jul-13 01:31N 59°53' E 025°31'918.3
2019-Jul-13 01:00N 59°55' E 025°49'1018.5
2019-Jul-13 00:28N 59°58' E 026°08'918.5
2019-Jul-13 00:01N 60°00' E 026°24'917.2
2019-Jul-12 23:30N 60°01' E 026°41'918.0
2019-Jul-12 23:00N 59°59' E 026°59'917.4
2019-Jul-12 22:29N 60°03' E 027°16'918.0
2019-Jul-12 22:01N 60°08' E 027°30'917.6
2019-Jul-12 21:30N 60°12' E 027°46'917.2
2019-Jul-12 21:01N 60°10' E 028°03'917.7
2019-Jul-12 20:30N 60°07' E 028°19'816.9
2019-Jul-12 20:00N 60°03' E 028°34'917.9
2019-Jul-12 19:30N 60°02' E 028°53'1017.6
2019-Jul-12 18:56N 60°02' E 029°12'1711.9
2019-Jul-12 17:31N 59°59' E 029°46'0 7.4
2019-Jul-12 17:30N 59°59' E 029°46'5 9.6
2019-Jul-12 17:00N 59°56' E 029°54'5 9.7
2019-Jul-12 16:30N 59°56' E 030°04'4 7.5
2019-Jul-12 16:00N 59°57' E 030°11'0 0.3
2019-Jul-12 15:29N 59°57' E 030°11'0 0.0
2019-Jul-12 14:56N 59°57' E 030°11'0 0.0
2019-Jul-12 14:29N 59°57' E 030°11'0 0.0
2019-Jul-12 13:59N 59°57' E 030°11'0 0.0
2019-Jul-12 13:29N 59°57' E 030°11'0 0.0
2019-Jul-12 12:59N 59°57' E 030°11'0 0.0
2019-Jul-12 12:29N 59°57' E 030°11'0 0.0
2019-Jul-12 11:59N 59°57' E 030°11'0 0.0
2019-Jul-12 11:29N 59°57' E 030°11'0 0.0
2019-Jul-12 10:59N 59°57' E 030°11'0 0.0
2019-Jul-12 10:29N 59°57' E 030°11'0 0.0
2019-Jul-12 09:59N 59°57' E 030°11'0 0.0
2019-Jul-12 09:29N 59°57' E 030°11'0 0.0
2019-Jul-12 08:59N 59°57' E 030°11'0 0.0
2019-Jul-12 08:29N 59°57' E 030°11'0 0.0
2019-Jul-12 07:59N 59°57' E 030°11'0 0.0
2019-Jul-12 07:29N 59°57' E 030°11'0 0.0
2019-Jul-12 06:59N 59°57' E 030°11'0 0.0
2019-Jul-12 06:29N 59°57' E 030°11'0 0.0
2019-Jul-12 05:59N 59°57' E 030°11'0 0.0
2019-Jul-12 05:29N 59°57' E 030°11'0 0.0
2019-Jul-12 04:59N 59°57' E 030°11'0 0.0
2019-Jul-12 04:29N 59°57' E 030°11'  

Dump ship's entire track history